Time;durP1;ratioP1;P1;durP2;ratioP2;P2;SDS_P1;SDS_P2;PMS_P1;PMS_P2;Temp;Humidity;BMP_temperature;BMP_pressure;BME280_temperature;BME280_humidity;BME280_pressure;Samples;Min_cycle;Max_cycle;Signal;HPM_P1;HPM_P2
2022/01/04 00:01:34;;;;;;;1.97;1.40;;;9.40;99.90;;;;;;5118955;28;20410;-41
2022/01/04 00:04:00;;;;;;;5.30;1.60;;;9.30;99.90;;;;;;5099887;28;20187;-41
2022/01/04 00:06:28;;;;;;;2.10;1.30;;;9.30;99.90;;;;;;5136967;27;20297;-38
2022/01/04 00:09:01;;;;;;;2.43;1.57;;;9.30;99.90;;;;;;5120854;27;20438;-41
2022/01/04 00:13:21;;;;;;;2.70;1.67;;;9.40;99.90;;;;;;5139033;27;20560;-42
2022/01/04 00:14:19;;;;;;;4.60;1.27;;;9.30;99.90;;;;;;5134380;27;20421;-42
2022/01/04 00:16:45;;;;;;;2.30;1.40;;;9.40;99.90;;;;;;5139206;27;20409;-41
2022/01/04 00:19:11;;;;;;;4.80;1.57;;;9.40;99.90;;;;;;5138572;27;20469;-39
2022/01/04 00:21:37;;;;;;;4.20;1.70;;;9.30;99.90;;;;;;5139054;27;20414;-40
2022/01/04 00:24:06;;;;;;;2.70;1.40;;;9.30;99.90;;;;;;5138703;27;20455;-39
2022/01/04 00:26:32;;;;;;;2.87;1.83;;;9.30;99.90;;;;;;5138882;28;20409;-41
2022/01/04 00:28:58;;;;;;;1.50;1.13;;;9.30;99.90;;;;;;5121134;28;20509;-40
2022/01/04 00:31:23;;;;;;;2.00;1.30;;;9.30;99.90;;;;;;5138499;28;20305;-43
2022/01/04 00:33:50;;;;;;;2.70;1.80;;;9.30;99.90;;;;;;5138290;28;20228;-41
2022/01/04 00:36:16;;;;;;;4.20;2.13;;;9.30;99.90;;;;;;5138708;28;20446;-40
2022/01/04 00:38:41;;;;;;;3.27;1.23;;;9.30;99.90;;;;;;5138515;28;20446;-41
2022/01/04 00:41:07;;;;;;;2.27;1.40;;;9.30;99.90;;;;;;5138185;28;20239;-41
2022/01/04 00:43:33;;;;;;;3.03;1.40;;;9.30;99.90;;;;;;5138113;28;20276;-41
2022/01/04 00:45:59;;;;;;;2.47;1.30;;;9.30;99.90;;;;;;5138169;28;20180;-40
2022/01/04 00:50:51;;;;;;;2.50;1.33;;;9.30;99.90;;;;;;5118985;28;20502;-39
2022/01/04 00:53:17;;;;;;;1.87;1.60;;;9.30;99.90;;;;;;5119358;28;20180;-42
2022/01/04 00:55:43;;;;;;;3.93;1.70;;;9.30;99.90;;;;;;5137646;28;20167;-39
2022/01/04 00:58:08;;;;;;;3.10;1.50;;;9.30;99.90;;;;;;5121061;27;20505;-41
2022/01/04 01:00:38;;;;;;;2.10;1.53;;;9.30;99.90;;;;;;5141915;27;20188;-37
2022/01/04 01:03:06;;;;;;;3.37;1.63;;;9.30;99.90;;;;;;5141946;27;20171;-40
2022/01/04 01:05:33;;;;;;;2.93;1.67;;;9.20;99.90;;;;;;5124040;27;20411;-41
2022/01/04 01:07:58;;;;;;;2.90;1.83;;;9.30;99.90;;;;;;5142339;27;20459;-41
2022/01/04 01:10:44;;;;;;;2.47;1.60;;;9.30;99.90;;;;;;5142112;27;20678;-40
2022/01/04 01:13:11;;;;;;;2.83;1.60;;;9.30;99.90;;;;;;5127126;27;20234;-42
2022/01/04 01:15:40;;;;;;;3.93;1.77;;;9.30;99.90;;;;;;5141283;27;20470;-40
2022/01/04 01:18:07;;;;;;;3.40;1.80;;;9.30;99.90;;;;;;5141725;27;20403;-41
2022/01/04 01:20:33;;;;;;;2.83;1.63;;;9.30;99.90;;;;;;5141770;27;20468;-40
2022/01/04 01:22:59;;;;;;;2.03;1.73;;;9.30;99.90;;;;;;5142401;27;20474;-41
2022/01/04 01:25:24;;;;;;;2.63;1.97;;;9.30;99.90;;;;;;5142247;27;20193;-42
2022/01/04 01:27:50;;;;;;;3.20;1.90;;;9.30;99.90;;;;;;5141642;27;20196;-40
2022/01/04 01:30:16;;;;;;;3.93;1.60;;;9.30;99.90;;;;;;5141348;27;20219;-39
2022/01/04 01:32:42;;;;;;;3.37;1.80;;;9.30;99.90;;;;;;5142152;27;20179;-41
2022/01/04 01:35:08;;;;;;;2.50;1.50;;;9.30;99.90;;;;;;5123851;27;20496;-43
2022/01/04 01:37:34;;;;;;;3.43;2.27;;;9.30;99.90;;;;;;5141912;27;20251;-42
2022/01/04 01:40:00;;;;;;;2.83;2.00;;;9.30;99.90;;;;;;5141626;27;20452;-41
2022/01/04 01:42:25;;;;;;;1.93;1.70;;;9.30;99.90;;;;;;5141588;27;20874;-39
2022/01/04 01:44:51;;;;;;;3.40;2.37;;;9.30;99.90;;;;;;5141643;27;20435;-41
2022/01/04 01:47:17;;;;;;;4.20;2.13;;;9.30;99.90;;;;;;5141821;27;20596;-41
2022/01/04 01:49:46;;;;;;;2.63;2.27;;;9.30;99.90;;;;;;5123295;27;20187;-38
2022/01/04 01:52:11;;;;;;;2.33;2.00;;;9.30;99.90;;;;;;5141762;27;20176;-42
2022/01/04 01:54:40;;;;;;;4.27;2.43;;;9.20;99.90;;;;;;5141101;27;20411;-42
2022/01/04 01:57:05;;;;;;;3.50;2.30;;;9.20;99.90;;;;;;5123764;27;20189;-43
2022/01/04 01:59:31;;;;;;;2.60;2.13;;;9.30;99.90;;;;;;5123409;27;20409;-42
2022/01/04 02:01:57;;;;;;;2.90;2.37;;;9.30;99.90;;;;;;5141340;27;20166;-40
2022/01/04 02:04:22;;;;;;;3.10;2.73;;;9.20;99.90;;;;;;5141240;27;20873;-41
2022/01/04 02:06:56;;;;;;;2.73;2.20;;;9.20;99.90;;;;;;5141198;27;20288;-40
2022/01/04 02:09:21;;;;;;;2.90;2.60;;;9.20;99.90;;;;;;5140559;27;20175;-43
2022/01/04 02:15:11;;;;;;;2.53;2.33;;;9.30;99.90;;;;;;5141060;27;20307;-42
2022/01/04 02:17:44;;;;;;;3.97;2.73;;;9.30;99.90;;;;;;5141213;27;20504;-41
2022/01/04 02:20:10;;;;;;;2.60;2.40;;;9.40;99.90;;;;;;5122511;27;20717;-43
2022/01/04 02:22:36;;;;;;;3.37;2.47;;;9.50;99.90;;;;;;5140905;27;20492;-40
2022/01/04 02:25:03;;;;;;;3.83;2.37;;;9.50;99.90;;;;;;5140681;27;20436;-42
2022/01/04 02:27:30;;;;;;;3.43;2.10;;;9.40;99.90;;;;;;5140834;27;20495;-42
2022/01/04 02:29:56;;;;;;;2.87;2.37;;;9.40;99.90;;;;;;5122783;27;20452;-40
2022/01/04 02:32:22;;;;;;;5.63;2.77;;;9.50;99.90;;;;;;5140695;27;20517;-40
2022/01/04 02:34:49;;;;;;;2.63;2.27;;;9.60;99.90;;;;;;5122300;27;20613;-43
2022/01/04 02:37:28;;;;;;;3.13;2.07;;;9.60;99.90;;;;;;5140653;27;20178;-41
2022/01/04 02:39:54;;;;;;;3.40;2.60;;;9.60;99.90;;;;;;5140680;27;20441;-42
2022/01/04 02:42:21;;;;;;;8.97;3.00;;;9.70;99.90;;;;;;5140455;27;20414;-42
2022/01/04 02:44:47;;;;;;;2.33;2.13;;;9.70;99.90;;;;;;5140233;27;20451;-41
2022/01/04 02:47:13;;;;;;;2.50;2.20;;;9.70;99.90;;;;;;5140217;27;20465;-39
2022/01/04 02:49:39;;;;;;;3.60;2.40;;;9.70;99.90;;;;;;5140258;27;20463;-43
2022/01/04 02:52:05;;;;;;;4.17;2.30;;;9.80;99.90;;;;;;5140353;27;20398;-42
2022/01/04 02:54:30;;;;;;;2.70;2.00;;;9.90;99.90;;;;;;5140081;27;20174;-40
2022/01/04 02:56:56;;;;;;;2.93;2.17;;;9.90;99.90;;;;;;5140363;27;20507;-43
2022/01/04 02:59:22;;;;;;;3.80;2.30;;;9.90;99.90;;;;;;5139991;27;20171;-37
2022/01/04 03:01:47;;;;;;;3.17;2.40;;;9.90;99.90;;;;;;5139681;27;20155;-42
2022/01/04 03:04:13;;;;;;;3.07;2.37;;;10.00;99.90;;;;;;5139783;27;20172;-42
2022/01/04 03:06:39;;;;;;;3.63;2.37;;;10.00;99.90;;;;;;5140054;27;20186;-43
2022/01/04 03:09:05;;;;;;;3.67;2.10;;;10.00;99.90;;;;;;5140070;27;20178;-41
2022/01/04 03:11:32;;;;;;;2.83;2.07;;;10.10;99.90;;;;;;5140027;27;20196;-41
2022/01/04 03:13:57;;;;;;;2.30;2.10;;;10.10;99.90;;;;;;5139664;27;20585;-40
2022/01/04 03:16:23;;;;;;;2.60;1.97;;;10.10;99.90;;;;;;5139719;27;20460;-43
2022/01/04 03:19:03;;;;;;;2.50;2.13;;;10.10;99.90;;;;;;5139724;27;20177;-40
2022/01/04 03:21:39;;;;;;;1.77;1.60;;;10.20;99.90;;;;;;5139212;27;20187;-39
2022/01/04 03:24:06;;;;;;;2.70;1.80;;;10.10;99.90;;;;;;5139722;27;20430;-40
2022/01/04 03:26:32;;;;;;;2.00;1.73;;;10.20;99.90;;;;;;5139654;27;20435;-41
2022/01/04 03:29:01;;;;;;;2.40;1.60;;;10.20;99.90;;;;;;5139546;27;20402;-42
2022/01/04 03:31:28;;;;;;;2.23;1.80;;;10.20;99.90;;;;;;5139247;27;20241;-42
2022/01/04 03:33:54;;;;;;;2.53;2.10;;;10.10;99.90;;;;;;5139662;27;20424;-41
2022/01/04 03:36:21;;;;;;;3.27;1.50;;;10.10;99.90;;;;;;5139329;27;20445;-39
2022/01/04 03:38:48;;;;;;;2.90;1.83;;;10.10;99.90;;;;;;5139091;27;20514;-42
2022/01/04 03:41:15;;;;;;;4.03;1.60;;;10.10;99.90;;;;;;5139232;27;20447;-42
2022/01/04 03:43:41;;;;;;;2.37;1.67;;;10.10;99.90;;;;;;5139525;27;20413;-42
2022/01/04 03:46:06;;;;;;;3.20;2.03;;;10.10;99.90;;;;;;5138782;27;20710;-42
2022/01/04 03:48:33;;;;;;;2.20;1.80;;;10.10;99.90;;;;;;5138817;27;20286;-41
2022/01/04 03:50:59;;;;;;;2.87;1.57;;;10.10;99.90;;;;;;5139132;27;20272;-41
2022/01/04 03:53:24;;;;;;;2.73;1.87;;;10.20;99.90;;;;;;5139631;27;20453;-42
2022/01/04 03:55:50;;;;;;;2.00;1.40;;;10.10;99.90;;;;;;5139211;27;20230;-42
2022/01/04 03:58:16;;;;;;;1.97;1.30;;;10.10;99.90;;;;;;5138833;27;20171;-41
2022/01/04 04:00:41;;;;;;;2.00;1.80;;;10.10;99.90;;;;;;5121068;27;20170;-42
2022/01/04 04:03:07;;;;;;;2.60;1.43;;;10.10;99.90;;;;;;5138740;27;20256;-41
2022/01/04 04:05:32;;;;;;;2.40;1.50;;;10.20;99.90;;;;;;5138409;27;20223;-41
2022/01/04 04:07:58;;;;;;;3.33;1.37;;;10.20;99.90;;;;;;5138752;27;20242;-42
2022/01/04 04:10:24;;;;;;;2.60;1.70;;;10.20;99.90;;;;;;5137056;27;20637;-42
2022/01/04 04:12:49;;;;;;;4.23;1.50;;;10.20;99.90;;;;;;5138358;27;20174;-41
2022/01/04 04:15:15;;;;;;;1.70;1.50;;;10.20;99.90;;;;;;5118739;27;20192;-43
2022/01/04 04:17:41;;;;;;;2.73;1.20;;;10.20;99.90;;;;;;5136751;27;20245;-38
2022/01/04 04:20:07;;;;;;;2.03;1.50;;;10.20;99.90;;;;;;5136805;27;20186;-40
2022/01/04 04:22:32;;;;;;;2.33;1.30;;;10.20;99.90;;;;;;5135968;27;20176;-39
2022/01/04 04:24:58;;;;;;;2.73;1.43;;;10.20;99.90;;;;;;5135030;27;20568;-41
2022/01/04 04:27:24;;;;;;;2.87;1.57;;;10.20;99.90;;;;;;5136256;28;20209;-42
2022/01/04 04:29:49;;;;;;;2.30;1.13;;;10.20;99.90;;;;;;5136714;28;20178;-42
2022/01/04 04:32:15;;;;;;;2.37;1.47;;;10.20;99.90;;;;;;5138916;27;20207;-41
2022/01/04 04:34:41;;;;;;;1.40;1.20;;;10.20;99.90;;;;;;5141296;27;20541;-41
2022/01/04 04:37:07;;;;;;;2.30;2.00;;;10.20;99.90;;;;;;5141632;27;20426;-41
2022/01/04 04:39:32;;;;;;;1.57;1.40;;;10.20;99.90;;;;;;5140945;27;20598;-43
2022/01/04 04:41:58;;;;;;;1.70;1.37;;;10.10;99.90;;;;;;5141343;27;20420;-43
2022/01/04 04:44:24;;;;;;;2.47;1.43;;;10.10;99.90;;;;;;5140665;27;20166;-41
2022/01/04 04:46:50;;;;;;;2.73;1.70;;;10.10;99.90;;;;;;5141250;27;20178;-43
2022/01/04 04:49:15;;;;;;;2.00;1.60;;;10.10;99.90;;;;;;5142089;27;20493;-43
2022/01/04 04:51:41;;;;;;;2.30;1.50;;;10.10;99.90;;;;;;5141546;27;20441;-42
2022/01/04 04:54:07;;;;;;;2.17;1.57;;;10.10;99.90;;;;;;5141361;27;20826;-41
2022/01/04 04:56:34;;;;;;;1.90;1.60;;;10.00;99.90;;;;;;5141168;27;20189;-40
2022/01/04 04:59:00;;;;;;;2.10;1.77;;;10.10;99.90;;;;;;5140023;27;20189;-42
2022/01/04 05:01:26;;;;;;;1.70;1.50;;;10.00;99.90;;;;;;5121991;27;20691;-43
2022/01/04 05:03:52;;;;;;;2.90;1.70;;;10.00;99.90;;;;;;5139834;27;20458;-46
2022/01/04 05:06:18;;;;;;;2.00;1.57;;;10.00;99.90;;;;;;5139090;27;20185;-45
2022/01/04 05:08:44;;;;;;;2.87;1.50;;;10.00;99.90;;;;;;5138743;27;20473;-46
2022/01/04 05:11:12;;;;;;;1.83;1.40;;;10.00;99.90;;;;;;5139892;27;20428;-45
2022/01/04 05:13:38;;;;;;;2.03;1.83;;;10.00;99.90;;;;;;5140252;27;20187;-45
2022/01/04 05:16:04;;;;;;;2.47;1.50;;;10.00;99.90;;;;;;5141120;27;20422;-46
2022/01/04 05:18:30;;;;;;;2.00;1.80;;;9.90;99.90;;;;;;5141689;27;20559;-45
2022/01/04 05:20:55;;;;;;;1.80;1.23;;;9.90;99.90;;;;;;5141992;27;20466;-45
2022/01/04 05:23:21;;;;;;;2.10;1.73;;;9.90;99.90;;;;;;5142020;27;20187;-45
2022/01/04 05:25:47;;;;;;;2.17;1.80;;;9.90;99.90;;;;;;5140702;27;20192;-46
2022/01/04 05:28:12;;;;;;;2.20;1.73;;;9.90;99.90;;;;;;5138322;27;20522;-46
2022/01/04 05:30:38;;;;;;;1.90;1.47;;;9.90;99.90;;;;;;5138166;27;20229;-45
2022/01/04 05:33:06;;;;;;;2.90;1.93;;;9.90;99.90;;;;;;5138681;27;20179;-45
2022/01/04 05:35:32;;;;;;;2.07;1.27;;;9.90;99.90;;;;;;5138158;27;20182;-46
2022/01/04 05:37:58;;;;;;;2.00;1.80;;;9.80;99.90;;;;;;5138465;27;20411;-48
2022/01/04 05:40:23;;;;;;;1.80;1.70;;;9.90;99.90;;;;;;5138985;27;20252;-46
2022/01/04 05:42:49;;;;;;;2.67;1.50;;;9.90;99.90;;;;;;5122205;27;20266;-45
2022/01/04 05:45:15;;;;;;;2.40;1.67;;;9.90;99.90;;;;;;5139111;27;20521;-45
2022/01/04 05:47:40;;;;;;;2.33;1.60;;;9.90;99.90;;;;;;5121078;27;20220;-45
2022/01/04 05:50:08;;;;;;;6.17;2.03;;;9.90;99.90;;;;;;5139090;27;20936;-46
2022/01/04 05:52:34;;;;;;;1.97;1.57;;;9.80;99.90;;;;;;5139469;27;20257;-45
2022/01/04 05:55:00;;;;;;;2.10;1.57;;;9.80;99.90;;;;;;5139750;27;20426;-45
2022/01/04 05:57:25;;;;;;;2.40;1.40;;;9.80;99.90;;;;;;5137683;27;20472;-45
2022/01/04 05:59:51;;;;;;;1.67;1.37;;;9.80;99.90;;;;;;5139553;27;20482;-45
2022/01/04 06:02:17;;;;;;;2.07;1.37;;;9.80;99.90;;;;;;5141814;27;20243;-37
2022/01/04 06:04:42;;;;;;;1.90;1.70;;;9.80;99.90;;;;;;5141231;27;20291;-36
2022/01/04 06:07:08;;;;;;;1.77;1.40;;;9.80;99.90;;;;;;5140075;27;20213;-37
2022/01/04 06:09:43;;;;;;;1.67;1.53;;;9.80;99.90;;;;;;5139984;27;20416;-37
2022/01/04 06:15:01;;;;;;;2.23;1.37;;;9.80;99.90;;;;;;5136982;27;20539;-39
2022/01/04 06:17:32;;;;;;;2.00;1.77;;;9.90;99.90;;;;;;5137177;27;20729;-37
2022/01/04 06:19:58;;;;;;;2.07;1.53;;;9.90;99.90;;;;;;5119577;27;20770;-37
2022/01/04 06:22:25;;;;;;;2.03;1.30;;;9.90;99.90;;;;;;5138093;27;20423;-36
2022/01/04 06:24:52;;;;;;;1.73;1.40;;;9.90;99.90;;;;;;5137457;27;20854;-37
2022/01/04 06:27:18;;;;;;;1.53;1.40;;;9.90;99.90;;;;;;5138620;27;20464;-36
2022/01/04 06:29:43;;;;;;;1.70;1.30;;;9.90;99.90;;;;;;5138447;27;20702;-36
2022/01/04 06:32:10;;;;;;;1.67;1.30;;;9.80;99.90;;;;;;5138796;27;20456;-36
2022/01/04 06:34:37;;;;;;;2.83;1.50;;;9.90;99.90;;;;;;5139395;27;20179;-36
2022/01/04 06:37:03;;;;;;;1.47;1.30;;;9.90;99.90;;;;;;5120538;27;20709;-37
2022/01/04 06:39:28;;;;;;;3.40;1.40;;;9.80;99.90;;;;;;5138486;27;20418;-37
2022/01/04 06:41:54;;;;;;;3.27;1.27;;;9.90;99.90;;;;;;5118333;27;20409;-37
2022/01/04 06:44:20;;;;;;;1.40;1.13;;;9.90;99.90;;;;;;5136046;27;20172;-36
2022/01/04 06:46:45;;;;;;;1.60;1.40;;;9.90;99.90;;;;;;5136248;27;20187;-37
2022/01/04 06:49:15;;;;;;;1.67;1.20;;;9.90;99.90;;;;;;5136725;27;20182;-36
2022/01/04 06:51:42;;;;;;;2.63;1.60;;;9.90;99.90;;;;;;5118322;27;20609;-37
2022/01/04 06:54:09;;;;;;;2.27;1.40;;;9.90;99.90;;;;;;5136832;27;20439;-36
2022/01/04 06:56:35;;;;;;;2.80;1.60;;;9.80;99.90;;;;;;5136455;27;20415;-39
2022/01/04 06:59:01;;;;;;;5.00;1.63;;;9.90;99.90;;;;;;5136539;27;20521;-36
2022/01/04 07:01:27;;;;;;;2.60;1.63;;;9.90;99.90;;;;;;5137080;27;20441;-36
2022/01/04 07:03:53;;;;;;;1.57;1.40;;;9.90;99.90;;;;;;5137164;27;20421;-36
2022/01/04 07:06:18;;;;;;;1.70;1.60;;;10.00;99.90;;;;;;5137457;27;20549;-36
2022/01/04 07:08:46;;;;;;;1.53;1.43;;;10.00;99.90;;;;;;5119167;27;20209;-37
2022/01/04 07:11:12;;;;;;;1.33;1.10;;;10.00;99.90;;;;;;5137667;27;20565;-37
2022/01/04 07:13:37;;;;;;;1.73;1.40;;;10.00;99.90;;;;;;5138646;27;20416;-36
2022/01/04 07:16:03;;;;;;;1.40;1.30;;;10.10;99.90;;;;;;5138912;27;20172;-36
2022/01/04 07:18:32;;;;;;;1.80;1.30;;;10.10;99.90;;;;;;5138360;27;20190;-37
2022/01/04 07:20:58;;;;;;;2.50;1.07;;;10.10;99.90;;;;;;5138378;27;20427;-37
2022/01/04 07:23:23;;;;;;;0.90;0.70;;;10.20;99.90;;;;;;5138570;27;20696;-37
2022/01/04 07:25:49;;;;;;;1.67;1.27;;;10.30;99.90;;;;;;5138231;27;20253;-36
2022/01/04 07:28:15;;;;;;;2.27;1.10;;;10.40;99.90;;;;;;5137641;27;20224;-36
2022/01/04 07:30:43;;;;;;;2.23;1.17;;;10.40;99.90;;;;;;5137184;27;20451;-36
2022/01/04 07:33:09;;;;;;;1.60;1.00;;;10.50;99.90;;;;;;5135821;27;20182;-36
2022/01/04 07:35:35;;;;;;;1.50;1.17;;;10.60;99.90;;;;;;5135477;27;20429;-36
2022/01/04 07:38:00;;;;;;;3.67;1.30;;;10.60;99.90;;;;;;5134390;27;20192;-38
2022/01/04 07:40:26;;;;;;;1.53;1.30;;;10.70;99.90;;;;;;5134158;27;20331;-36
2022/01/04 07:42:53;;;;;;;2.17;1.10;;;10.70;99.90;;;;;;5133960;27;20576;-37
2022/01/04 07:45:19;;;;;;;1.80;1.10;;;10.70;99.90;;;;;;5132242;27;20426;-37
2022/01/04 07:47:47;;;;;;;1.77;1.10;;;10.80;99.90;;;;;;5138205;27;20476;-37
2022/01/04 07:50:12;;;;;;;1.80;1.40;;;10.90;99.90;;;;;;5136413;27;20165;-37
2022/01/04 07:52:38;;;;;;;1.67;1.00;;;11.00;99.90;;;;;;5137546;27;20447;-37
2022/01/04 07:55:05;;;;;;;3.13;1.20;;;11.00;99.90;;;;;;5138782;27;20167;-37
2022/01/04 07:57:31;;;;;;;1.67;1.10;;;11.00;99.90;;;;;;5120612;27;20206;-38
2022/01/04 07:59:56;;;;;;;1.90;1.20;;;11.10;99.90;;;;;;5137235;27;20701;-37
2022/01/04 08:02:22;;;;;;;1.67;1.43;;;11.10;99.90;;;;;;5135177;27;20662;-38
2022/01/04 08:04:50;;;;;;;1.90;1.20;;;11.10;99.90;;;;;;5137031;27;20617;-38
2022/01/04 08:07:15;;;;;;;2.40;1.43;;;11.10;99.90;;;;;;5137977;27;20313;-38
2022/01/04 08:09:41;;;;;;;3.73;1.60;;;11.10;99.90;;;;;;5138933;27;20435;-37
2022/01/04 08:12:07;;;;;;;1.40;1.10;;;11.10;99.90;;;;;;5138182;27;20195;-37
2022/01/04 08:14:35;;;;;;;1.23;0.80;;;11.10;99.90;;;;;;5139273;27;20703;-37
2022/01/04 08:17:02;;;;;;;3.30;1.97;;;11.20;99.90;;;;;;5139154;27;20451;-38
2022/01/04 08:19:27;;;;;;;1.93;1.40;;;11.20;99.90;;;;;;5140056;27;20422;-36
2022/01/04 08:21:53;;;;;;;3.73;2.13;;;11.30;99.90;;;;;;5138688;27;20420;-36
2022/01/04 08:24:18;;;;;;;2.57;1.57;;;11.30;99.90;;;;;;5137832;27;20186;-37
2022/01/04 08:26:44;;;;;;;1.70;1.50;;;11.30;99.90;;;;;;5134846;27;20164;-37
2022/01/04 08:29:10;;;;;;;1.90;1.50;;;11.40;99.90;;;;;;5136317;28;20185;-36
2022/01/04 08:31:37;;;;;;;5.13;1.37;;;11.40;99.90;;;;;;5135461;28;20570;-38
2022/01/04 08:34:03;;;;;;;3.30;1.40;;;11.40;99.90;;;;;;5118717;28;20320;-35
2022/01/04 08:36:29;;;;;;;2.13;1.33;;;11.40;99.90;;;;;;5135099;28;20890;-37
2022/01/04 08:39:01;;;;;;;1.97;1.20;;;11.40;99.90;;;;;;5134374;28;20182;-37
2022/01/04 08:41:30;;;;;;;2.57;1.40;;;11.50;99.90;;;;;;5134074;28;20757;-37
2022/01/04 08:43:56;;;;;;;2.60;1.60;;;11.50;99.90;;;;;;5134832;28;20470;-36
2022/01/04 08:46:24;;;;;;;1.20;0.90;;;11.50;99.90;;;;;;5136537;28;20416;-37
2022/01/04 08:48:50;;;;;;;3.00;1.40;;;11.60;99.90;;;;;;5135985;28;20562;-37
2022/01/04 08:51:16;;;;;;;4.23;1.40;;;11.50;99.90;;;;;;5136351;28;20677;-37
2022/01/04 08:53:41;;;;;;;2.17;1.43;;;11.50;99.90;;;;;;5135675;28;20587;-37
2022/01/04 08:56:08;;;;;;;4.80;1.60;;;11.60;99.90;;;;;;5136893;28;20178;-37
2022/01/04 08:58:34;;;;;;;1.90;1.20;;;11.60;99.90;;;;;;5118432;28;20535;-37
2022/01/04 09:01:02;;;;;;;2.77;1.00;;;11.70;99.90;;;;;;5133545;28;20420;-34
2022/01/04 09:03:28;;;;;;;1.43;0.90;;;11.80;99.90;;;;;;5131571;28;20170;-37
2022/01/04 09:05:58;;;;;;;1.40;1.13;;;11.80;99.90;;;;;;5132368;28;20416;-35
2022/01/04 09:08:23;;;;;;;2.70;1.13;;;11.80;99.90;;;;;;5133659;28;20800;-37
2022/01/04 09:10:49;;;;;;;1.77;1.07;;;11.80;99.90;;;;;;5139539;28;20443;-37
2022/01/04 09:13:20;;;;;;;1.50;1.20;;;11.80;99.90;;;;;;5138914;28;20268;-40
2022/01/04 09:20:56;;;;;;;3.10;1.23;;;11.80;99.90;;;;;;5139463;27;20204;-38
2022/01/04 09:23:23;;;;;;;3.10;1.17;;;11.80;99.90;;;;;;5139887;27;20892;-35
2022/01/04 09:25:49;;;;;;;1.97;1.57;;;11.80;99.90;;;;;;5143805;27;20180;-34
2022/01/04 09:28:21;;;;;;;1.83;1.17;;;11.70;99.90;;;;;;5144471;27;20465;-37
2022/01/04 09:30:50;;;;;;;1.87;1.37;;;11.70;99.90;;;;;;5145035;27;20550;-36
2022/01/04 09:33:20;;;;;;;2.90;1.20;;;11.70;99.90;;;;;;5143221;27;20400;-37
2022/01/04 09:35:46;;;;;;;1.60;1.10;;;11.60;99.90;;;;;;5144818;27;20494;-37
2022/01/04 09:38:13;;;;;;;2.80;2.03;;;11.60;99.90;;;;;;5140513;27;20510;-36
2022/01/04 09:40:41;;;;;;;3.20;1.10;;;11.60;99.90;;;;;;5140901;27;20443;-36
2022/01/04 09:43:08;;;;;;;2.30;1.50;;;11.60;99.90;;;;;;5121476;27;20412;-36
2022/01/04 09:45:34;;;;;;;2.00;1.33;;;11.50;99.90;;;;;;5137647;27;20420;-37
2022/01/04 09:48:00;;;;;;;1.70;1.50;;;11.50;99.90;;;;;;5138150;27;20491;-35
2022/01/04 09:50:26;;;;;;;5.03;2.03;;;11.50;99.90;;;;;;5140160;27;20175;-38
2022/01/04 09:52:53;;;;;;;2.37;1.43;;;11.50;99.90;;;;;;5139663;27;20185;-37
2022/01/04 09:55:18;;;;;;;6.03;2.00;;;11.50;99.90;;;;;;5102592;27;20705;-39
2022/01/04 09:57:45;;;;;;;4.53;1.77;;;11.50;99.90;;;;;;5138466;27;20438;-40
2022/01/04 10:00:14;;;;;;;2.57;1.30;;;11.50;99.90;;;;;;5120598;27;20268;-39
2022/01/04 10:02:49;;;;;;;5.73;1.50;;;11.40;99.90;;;;;;5138149;27;21022;-39
2022/01/04 10:05:25;;;;;;;2.00;1.37;;;11.40;99.90;;;;;;5140342;27;20462;-39
2022/01/04 10:08:02;;;;;;;3.00;1.57;;;11.40;99.90;;;;;;5140749;27;20620;-39
2022/01/04 10:10:28;;;;;;;3.37;2.07;;;11.50;99.90;;;;;;5139932;27;20409;-39
2022/01/04 10:12:57;;;;;;;2.50;1.97;;;11.60;99.90;;;;;;5140298;27;20708;-40
2022/01/04 10:15:34;;;;;;;2.63;1.70;;;11.60;99.90;;;;;;5121906;27;20417;-39
2022/01/04 10:18:24;;;;;;;2.27;1.50;;;11.80;99.90;;;;;;5140742;27;20527;-38
2022/01/04 10:21:12;;;;;;;2.43;2.23;;;11.80;99.90;;;;;;5120501;27;20441;-40
2022/01/04 10:24:04;;;;;;;2.33;1.67;;;11.80;99.90;;;;;;5136186;27;20866;-40
2022/01/04 10:26:35;;;;;;;3.00;1.70;;;11.70;99.90;;;;;;5113075;27;20428;-39
2022/01/04 10:29:03;;;;;;;2.70;2.20;;;11.70;99.90;;;;;;5117028;27;20455;-38
2022/01/04 10:31:37;;;;;;;2.37;2.00;;;11.70;99.90;;;;;;5133920;27;20455;-38
2022/01/04 10:34:03;;;;;;;2.17;1.40;;;11.80;99.90;;;;;;5135859;27;20468;-38
2022/01/04 10:36:38;;;;;;;3.93;2.57;;;11.80;99.90;;;;;;5119040;27;20414;-39
2022/01/04 10:39:08;;;;;;;2.30;1.60;;;12.00;99.90;;;;;;5118312;27;20572;-39
2022/01/04 10:41:34;;;;;;;3.13;1.80;;;12.00;99.90;;;;;;5120544;27;20510;-38
2022/01/04 10:44:09;;;;;;;6.00;2.23;;;12.00;99.90;;;;;;5120686;27;20512;-38
2022/01/04 10:46:44;;;;;;;2.90;1.90;;;12.00;99.90;;;;;;5138265;27;20459;-38
2022/01/04 10:49:20;;;;;;;3.03;1.80;;;12.00;99.90;;;;;;5138485;27;20456;-38
2022/01/04 10:52:04;;;;;;;2.30;1.50;;;12.00;99.90;;;;;;5138774;27;20728;-40
2022/01/04 10:54:30;;;;;;;3.53;1.90;;;11.90;99.90;;;;;;5104446;27;20446;-38
2022/01/04 10:57:08;;;;;;;3.60;1.80;;;11.90;99.90;;;;;;5121755;27;20397;-37
2022/01/04 10:59:41;;;;;;;3.73;1.50;;;11.90;99.90;;;;;;5139159;27;20179;-40
2022/01/04 11:02:07;;;;;;;3.00;2.70;;;11.80;99.90;;;;;;5138593;27;20410;-40
2022/01/04 11:04:37;;;;;;;4.00;2.40;;;11.80;99.90;;;;;;5138015;27;20430;-38
2022/01/04 11:07:03;;;;;;;4.83;3.23;;;11.80;99.90;;;;;;5138523;27;20418;-39
2022/01/04 11:09:30;;;;;;;4.00;3.23;;;11.80;99.90;;;;;;5139105;27;20508;-38
2022/01/04 11:11:56;;;;;;;2.47;1.80;;;11.90;99.90;;;;;;5138801;27;20575;-39
2022/01/04 11:14:21;;;;;;;4.47;2.27;;;11.90;99.90;;;;;;5138398;27;20520;-38
2022/01/04 11:16:51;;;;;;;11.83;3.07;;;11.90;99.90;;;;;;5138631;27;20532;-40
2022/01/04 11:19:19;;;;;;;5.83;2.20;;;12.00;99.90;;;;;;5121209;27;20188;-37
2022/01/04 11:21:45;;;;;;;2.43;1.83;;;11.90;99.90;;;;;;5118639;27;20727;-38
2022/01/04 11:24:13;;;;;;;6.53;2.60;;;11.90;99.90;;;;;;5136222;27;20438;-40
2022/01/04 11:26:45;;;;;;;4.10;1.90;;;11.90;99.90;;;;;;5135289;27;20761;-39
2022/01/04 11:29:15;;;;;;;2.60;2.13;;;11.80;99.90;;;;;;5136439;27;20579;-37
2022/01/04 11:31:48;;;;;;;3.30;2.13;;;11.80;99.90;;;;;;5136603;27;20464;-38
2022/01/04 11:34:36;;;;;;;3.00;2.10;;;11.80;99.90;;;;;;5099325;27;20549;-38
2022/01/04 11:37:02;;;;;;;2.27;2.03;;;11.70;99.90;;;;;;5116752;27;20411;-37
2022/01/04 11:39:41;;;;;;;4.83;2.47;;;11.70;99.90;;;;;;5116220;27;20424;-38
2022/01/04 11:42:13;;;;;;;3.60;2.20;;;11.60;99.90;;;;;;5133474;27;20403;-38
2022/01/04 11:44:44;;;;;;;2.60;1.97;;;11.60;99.90;;;;;;5135746;27;20862;-39
2022/01/04 11:47:20;;;;;;;2.60;2.30;;;11.50;99.90;;;;;;5135538;27;20503;-40
2022/01/04 11:50:07;;;;;;;3.20;1.90;;;11.50;99.90;;;;;;5134261;27;20412;-39
2022/01/04 11:52:36;;;;;;;3.80;2.40;;;11.50;99.90;;;;;;5134595;27;20398;-39
2022/01/04 11:55:30;;;;;;;2.80;2.27;;;11.40;99.90;;;;;;5134521;27;20838;-39
2022/01/04 11:57:57;;;;;;;4.63;2.83;;;11.40;99.90;;;;;;5131769;27;20438;-40
2022/01/04 12:00:25;;;;;;;4.43;2.77;;;11.40;99.90;;;;;;5116656;27;20424;-38
2022/01/04 12:03:11;;;;;;;3.60;2.90;;;11.40;99.90;;;;;;5135219;27;20432;-39
2022/01/04 12:05:45;;;;;;;4.70;2.60;;;11.30;99.90;;;;;;5136604;27;20415;-39
2022/01/04 12:08:22;;;;;;;5.20;2.40;;;11.30;99.90;;;;;;5117810;27;20470;-39
2022/01/04 12:10:56;;;;;;;3.37;2.30;;;11.30;99.90;;;;;;5136751;27;20539;-39
2022/01/04 12:13:23;;;;;;;6.67;2.80;;;11.30;99.90;;;;;;5135362;27;20458;-39
2022/01/04 12:15:57;;;;;;;3.07;2.23;;;11.30;99.90;;;;;;5135972;27;20415;-39
2022/01/04 12:18:22;;;;;;;2.80;2.50;;;11.30;99.90;;;;;;5136398;27;20436;-42
2022/01/04 12:20:49;;;;;;;4.10;1.80;;;11.20;99.90;;;;;;5136547;27;20826;-39
2022/01/04 12:23:27;;;;;;;4.40;2.80;;;11.20;99.90;;;;;;5120495;27;20450;-38
2022/01/04 12:26:05;;;;;;;6.50;3.03;;;11.30;99.90;;;;;;5114977;28;20466;-39
2022/01/04 12:28:31;;;;;;;4.53;2.60;;;11.30;99.90;;;;;;5115568;28;20585;-39
2022/01/04 12:31:19;;;;;;;6.43;2.70;;;11.20;99.90;;;;;;5116358;28;20467;-39
2022/01/04 12:33:51;;;;;;;2.80;2.43;;;11.30;99.90;;;;;;5117683;28;20440;-40
2022/01/04 12:36:34;;;;;;;2.57;2.37;;;11.20;99.90;;;;;;5116326;28;20406;-38
2022/01/04 12:39:04;;;;;;;4.07;2.40;;;11.20;99.90;;;;;;5113673;28;20436;-41
2022/01/04 12:41:35;;;;;;;3.70;2.63;;;11.20;99.90;;;;;;5113228;28;20425;-40
2022/01/04 12:44:01;;;;;;;8.13;3.30;;;11.10;99.90;;;;;;5094030;28;20428;-39
2022/01/04 12:46:30;;;;;;;5.70;3.00;;;11.10;99.90;;;;;;5115874;28;20718;-40
2022/01/04 12:49:01;;;;;;;2.90;1.93;;;11.10;99.90;;;;;;5098499;28;20243;-39
2022/01/04 12:51:38;;;;;;;5.43;2.60;;;11.10;99.90;;;;;;5114742;28;20424;-41
2022/01/04 12:54:11;;;;;;;4.10;2.50;;;11.10;99.90;;;;;;5117893;28;20419;-39
2022/01/04 12:56:43;;;;;;;5.80;3.53;;;11.10;99.90;;;;;;5103073;28;20415;-40
2022/01/04 12:59:09;;;;;;;4.80;2.53;;;11.10;99.90;;;;;;5121007;28;20840;-41
2022/01/04 13:01:35;;;;;;;2.90;2.00;;;11.10;99.90;;;;;;5119824;28;20432;-38
2022/01/04 13:04:02;;;;;;;2.83;2.30;;;11.10;99.90;;;;;;5120057;28;20738;-38
2022/01/04 13:06:31;;;;;;;3.70;3.40;;;11.10;99.90;;;;;;5120633;28;20880;-40
2022/01/04 13:08:58;;;;;;;10.67;5.60;;;11.00;99.90;;;;;;5120092;28;20485;-38